createdAt,value
2022-08-07T00:00:46.490Z,80.63
2022-08-07T00:02:39.816Z,81.26
2022-08-07T00:02:46.425Z,81.16
2022-08-07T00:03:47.270Z,81.07
2022-08-07T00:04:46.407Z,81.45
2022-08-07T00:05:46.441Z,81.74
2022-08-07T00:06:51.798Z,81.35
2022-08-07T00:07:46.270Z,81.26
2022-08-07T00:08:46.239Z,81.45
2022-08-07T00:10:04.653Z,81.54
2022-08-07T00:10:47.880Z,81.74
2022-08-07T00:11:54.519Z,81.54
2022-08-07T00:12:57.778Z,81.74
2022-08-07T00:13:46.078Z,81.64
2022-08-07T00:14:46.046Z,81.84
2022-08-07T00:15:46.766Z,82.03
2022-08-07T00:16:45.984Z,81.93
2022-08-07T00:17:45.953Z,82.21
2022-08-07T00:18:45.920Z,82.31
2022-08-07T00:20:00.903Z,82.21
2022-08-07T00:20:45.858Z,82.56
2022-08-07T00:21:56.679Z,83.14
2022-08-07T00:22:51.748Z,82.75
2022-08-07T00:23:45.764Z,83.14
2022-08-07T00:24:45.738Z,82.94
2022-08-07T00:25:52.119Z,83.14
2022-08-07T00:26:58.895Z,83.04
2022-08-07T00:27:52.913Z,83.42
2022-08-07T00:28:55.474Z,83.23
2022-08-07T00:29:45.573Z,83.42
2022-08-07T00:30:45.539Z,83.91
2022-08-07T00:31:45.511Z,83.81
2022-08-07T00:32:45.478Z,83.81
2022-08-07T00:33:47.732Z,84.19
2022-08-07T00:34:45.415Z,84.48
2022-08-07T00:35:49.460Z,84.38
2022-08-07T00:36:45.360Z,84.38
2022-08-07T00:37:47.970Z,84.09
2022-08-07T00:38:45.287Z,84.28
2022-08-07T00:39:45.447Z,84.82
2022-08-07T00:40:45.228Z,84.91
2022-08-07T00:41:45.414Z,84.82
2022-08-07T00:42:45.155Z,84.82
2022-08-07T00:44:00.471Z,85.01
2022-08-07T00:44:45.092Z,85.39
2022-08-07T00:45:46.560Z,85.11
2022-08-07T00:46:45.027Z,85.01
2022-08-07T00:48:09.681Z,85.01
2022-08-07T00:48:44.963Z,85.39
2022-08-07T00:50:19.185Z,85.88
2022-08-07T00:50:50.694Z,85.49
2022-08-07T00:51:56.739Z,86.25
2022-08-07T00:52:47.466Z,85.88
2022-08-07T00:53:50.466Z,85.39
2022-08-07T00:54:44.770Z,85.97
2022-08-07T00:56:02.447Z,85.78
2022-08-07T00:56:44.704Z,86.35
2022-08-07T00:57:44.675Z,85.58
2022-08-07T00:58:47.096Z,86.25
2022-08-07T00:59:44.607Z,85.78
2022-08-07T01:00:53.342Z,86.25
2022-08-07T01:01:44.905Z,86.16
2022-08-07T01:02:44.513Z,86.35
2022-08-07T01:03:55.485Z,85.78
2022-08-07T01:04:44.452Z,86.21
2022-08-07T01:05:53.584Z,86.21
2022-08-07T01:06:44.382Z,86.31
2022-08-07T01:07:44.352Z,86.16
2022-08-07T01:08:53.339Z,85.83
2022-08-07T01:10:05.776Z,86.35
2022-08-07T01:10:54.295Z,86.60
2022-08-07T01:12:08.979Z,86.60
2022-08-07T01:12:53.688Z,86.41
2022-08-07T01:13:54.374Z,86.21
2022-08-07T01:14:44.983Z,86.21
2022-08-07T01:16:05.548Z,86.60
2022-08-07T01:16:47.341Z,86.60
2022-08-07T01:17:44.028Z,86.41
2022-08-07T01:18:43.997Z,86.21
2022-08-07T01:19:52.353Z,86.41
2022-08-07T01:20:43.930Z,86.60
2022-08-07T01:21:43.896Z,86.50
2022-08-07T01:22:54.211Z,87.17
2022-08-07T01:23:46.715Z,87.17
2022-08-07T01:24:43.799Z,87.55
2022-08-07T01:25:55.296Z,87.46
2022-08-07T01:26:43.734Z,87.65
2022-08-07T01:27:51.503Z,87.94
2022-08-07T01:28:45.983Z,87.55
2022-08-07T01:29:43.635Z,87.74
2022-08-07T01:30:43.604Z,87.55
2022-08-07T01:31:48.113Z,87.65
2022-08-07T01:32:43.543Z,87.55
2022-08-07T01:33:56.325Z,87.74
2022-08-07T01:34:43.519Z,87.94
2022-08-07T01:35:54.418Z,87.94
2022-08-07T01:36:44.172Z,87.94
2022-08-07T01:37:43.382Z,87.84
2022-08-07T01:38:43.345Z,87.94
2022-08-07T01:39:46.891Z,87.84
2022-08-07T01:40:43.278Z,87.84
2022-08-07T01:41:55.260Z,87.51
2022-08-07T01:42:57.303Z,87.84
2022-08-07T01:43:43.183Z,87.17
2022-08-07T01:44:43.152Z,86.94
2022-08-07T01:45:43.124Z,86.79
2022-08-07T01:46:43.085Z,87.51
2022-08-07T01:48:29.296Z,87.37
2022-08-07T01:48:46.730Z,87.23
2022-08-07T01:49:43.002Z,86.94
2022-08-07T01:50:43.358Z,87.23
2022-08-07T01:52:01.573Z,87.13
2022-08-07T01:52:49.789Z,86.74
2022-08-07T01:54:09.086Z,87.03
2022-08-07T01:54:42.826Z,87.13
2022-08-07T01:55:42.789Z,86.94
2022-08-07T01:56:42.758Z,87.03
2022-08-07T01:58:01.200Z,86.74
2022-08-07T01:58:45.201Z,87.13
2022-08-07T01:59:43.842Z,87.03
2022-08-07T02:00:49.052Z,86.74
2022-08-07T02:01:59.851Z,87.23
2022-08-07T02:03:19.399Z,87.41
2022-08-07T02:03:48.805Z,87.41
2022-08-07T02:04:52.603Z,87.80
2022-08-07T02:05:47.890Z,87.99
2022-08-07T02:06:42.432Z,87.99
2022-08-07T02:07:50.129Z,88.18
2022-08-07T02:08:42.519Z,87.99
2022-08-07T02:09:52.757Z,88.18
2022-08-07T02:10:42.491Z,87.90
2022-08-07T02:12:04.657Z,88.18
2022-08-07T02:12:42.236Z,87.99
2022-08-07T02:13:59.765Z,88.18
2022-08-07T02:14:42.164Z,88.76
2022-08-07T02:15:42.136Z,88.66
2022-08-07T02:16:42.105Z,88.85
2022-08-07T02:17:42.077Z,88.37
2022-08-07T02:18:47.273Z,88.66
2022-08-07T02:20:07.016Z,88.62
2022-08-07T02:20:41.976Z,88.81
2022-08-07T02:21:56.490Z,88.56
2022-08-07T02:22:43.775Z,88.56
2022-08-07T02:23:41.874Z,88.81
2022-08-07T02:24:44.592Z,88.71
2022-08-07T02:26:30.506Z,88.95
2022-08-07T02:26:41.770Z,88.90
2022-08-07T02:27:41.741Z,88.81
2022-08-07T02:28:41.710Z,89.19
2022-08-07T02:29:48.718Z,88.56
2022-08-07T02:30:41.645Z,88.71
2022-08-07T02:31:41.606Z,89.09
2022-08-07T02:33:00.773Z,89.38
2022-08-07T02:34:01.878Z,89.19
2022-08-07T02:34:48.971Z,89.09
2022-08-07T02:36:30.213Z,89.00
2022-08-07T02:36:41.476Z,89.76
2022-08-07T02:37:43.821Z,89.58
2022-08-07T02:38:50.928Z,89.95
2022-08-07T02:40:01.771Z,89.48
2022-08-07T02:40:41.372Z,89.58
2022-08-07T02:41:41.344Z,89.38
2022-08-07T02:42:41.244Z,89.19
2022-08-07T02:43:41.209Z,89.38
2022-08-07T02:44:45.812Z,89.29
2022-08-07T02:46:01.731Z,89.00
2022-08-07T02:46:46.788Z,89.00
2022-08-07T02:47:45.594Z,89.09
2022-08-07T02:48:41.047Z,89.38
2022-08-07T02:49:57.877Z,89.29
2022-08-07T02:50:40.991Z,89.19
2022-08-07T02:51:49.586Z,89.38
2022-08-07T02:52:40.914Z,89.09
2022-08-07T02:53:40.885Z,89.76
2022-08-07T02:54:40.852Z,89.38
2022-08-07T02:56:03.327Z,89.76
2022-08-07T02:56:40.784Z,89.67
2022-08-07T02:57:40.750Z,89.67
2022-08-07T02:58:47.176Z,90.15
2022-08-07T02:59:40.686Z,90.24
2022-08-07T03:00:40.719Z,89.91
2022-08-07T03:01:40.633Z,89.53
2022-08-07T03:02:54.049Z,89.95
2022-08-07T03:03:49.005Z,90.01
2022-08-07T03:04:40.518Z,89.91
2022-08-07T03:05:40.482Z,89.72
2022-08-07T03:06:40.451Z,89.91
2022-08-07T03:08:05.301Z,90.20
2022-08-07T03:08:40.387Z,90.48
2022-08-07T03:09:43.444Z,90.20
2022-08-07T03:10:46.201Z,90.20
2022-08-07T03:11:52.361Z,90.10
2022-08-07T03:12:40.253Z,90.30
2022-08-07T03:13:49.932Z,90.67
2022-08-07T03:14:40.187Z,90.96
2022-08-07T03:15:55.823Z,90.77
2022-08-07T03:16:40.121Z,90.48
2022-08-07T03:17:54.075Z,90.77
2022-08-07T03:18:40.054Z,90.39
2022-08-07T03:19:40.016Z,90.67
2022-08-07T03:20:39.984Z,90.58
2022-08-07T03:21:39.952Z,90.58
2022-08-07T03:22:39.923Z,90.48
2022-08-07T03:24:21.079Z,90.48
2022-08-07T03:24:39.852Z,90.87
2022-08-07T03:25:40.498Z,90.48
2022-08-07T03:26:42.889Z,90.77
2022-08-07T03:28:09.057Z,90.67
2022-08-07T03:28:39.984Z,90.67
2022-08-07T03:29:39.685Z,90.58
2022-08-07T03:30:39.651Z,90.39
2022-08-07T03:31:42.706Z,90.87
2022-08-07T03:32:39.584Z,90.58
2022-08-07T03:33:40.215Z,90.87
2022-08-07T03:34:39.604Z,90.58
2022-08-07T03:35:49.890Z,90.77
2022-08-07T03:36:39.454Z,90.39
2022-08-07T03:37:46.234Z,90.96
2022-08-07T03:38:39.383Z,90.58
2022-08-07T03:39:59.948Z,91.16
2022-08-07T03:40:39.338Z,90.58
2022-08-07T03:41:41.971Z,90.96
2022-08-07T03:42:39.252Z,91.44
2022-08-07T03:43:39.217Z,91.25
2022-08-07T03:44:39.188Z,90.96
2022-08-07T03:45:39.607Z,90.87
2022-08-07T03:47:13.064Z,90.96
2022-08-07T03:47:48.007Z,90.77
2022-08-07T03:48:39.051Z,91.73
2022-08-07T03:49:39.017Z,91.68
2022-08-07T03:50:38.988Z,92.11
2022-08-07T03:51:47.107Z,91.59
2022-08-07T03:52:38.916Z,91.68
2022-08-07T03:54:05.817Z,91.53
2022-08-07T03:54:55.207Z,92.21
2022-08-07T03:55:58.488Z,91.83
2022-08-07T03:56:38.780Z,91.92
2022-08-07T03:58:32.543Z,91.73
2022-08-07T03:59:08.456Z,91.20
2022-08-07T03:59:46.618Z,91.11
2022-08-07T04:00:38.693Z,91.35
2022-08-07T04:01:38.658Z,91.11
2022-08-07T04:02:41.137Z,90.34
2022-08-07T04:03:49.506Z,90.87
2022-08-07T04:04:38.521Z,91.16
2022-08-07T04:05:40.455Z,91.16
2022-08-07T04:06:38.876Z,90.92
2022-08-07T04:07:42.808Z,90.92
2022-08-07T04:08:38.382Z,91.49
2022-08-07T04:09:45.207Z,91.30
2022-08-07T04:10:38.759Z,91.11
2022-08-07T04:12:25.746Z,91.11
2022-08-07T04:12:38.249Z,91.11
2022-08-07T04:14:10.457Z,90.92
2022-08-07T04:14:45.995Z,90.92
2022-08-07T04:15:38.143Z,90.82
2022-08-07T04:16:38.114Z,91.39
2022-08-07T04:18:57.083Z,91.49
2022-08-07T04:19:00.151Z,91.68
2022-08-07T04:19:52.666Z,91.68
2022-08-07T04:20:37.978Z,91.11
2022-08-07T04:21:37.948Z,91.20
2022-08-07T04:22:37.921Z,90.73
2022-08-07T04:23:43.360Z,91.30
2022-08-07T04:24:38.996Z,91.68
2022-08-07T04:25:40.839Z,91.88
2022-08-07T04:26:37.778Z,91.68
2022-08-07T04:27:43.903Z,91.49
2022-08-07T04:28:37.717Z,91.78
2022-08-07T04:29:40.304Z,91.78
2022-08-07T04:30:55.161Z,91.88
2022-08-07T04:31:38.953Z,91.59
2022-08-07T04:32:37.574Z,91.20
2022-08-07T04:33:37.539Z,91.49
2022-08-07T04:34:39.387Z,92.16
2022-08-07T04:35:37.476Z,91.97
2022-08-07T04:36:37.437Z,91.88
2022-08-07T04:37:52.954Z,92.25
2022-08-07T04:38:37.368Z,92.16
2022-08-07T04:39:37.362Z,92.16
2022-08-07T04:40:51.237Z,91.88
2022-08-07T04:41:37.270Z,91.59
2022-08-07T04:42:37.236Z,91.78
2022-08-07T04:44:12.689Z,92.30
2022-08-07T04:44:37.168Z,92.16
2022-08-07T04:46:00.684Z,92.21
2022-08-07T04:46:40.020Z,92.16
2022-08-07T04:48:01.615Z,92.16
2022-08-07T04:48:37.033Z,92.25
2022-08-07T04:49:37.818Z,92.16
2022-08-07T04:50:37.037Z,92.83
2022-08-07T04:51:36.931Z,93.02
2022-08-07T04:52:36.894Z,92.25
2022-08-07T04:54:01.000Z,92.83
2022-08-07T04:54:36.970Z,92.16
2022-08-07T04:58:11.441Z,91.78
2022-08-07T04:58:12.865Z,92.16
2022-08-07T04:58:24.123Z,92.16
2022-08-07T04:59:09.203Z,92.16
2022-08-07T05:00:10.702Z,91.88
2022-08-07T05:00:36.938Z,91.88
2022-08-07T05:01:36.685Z,92.35
2022-08-07T05:02:36.559Z,92.25
2022-08-07T05:04:00.113Z,91.68
2022-08-07T05:04:36.490Z,92.35
2022-08-07T05:05:52.970Z,92.64
2022-08-07T05:06:43.592Z,91.78
2022-08-07T05:07:37.099Z,91.88
2022-08-07T05:08:59.570Z,91.97
2022-08-07T05:09:45.780Z,92.16
2022-08-07T05:10:36.285Z,92.25
2022-08-07T05:11:57.262Z,91.97
2022-08-07T05:12:36.220Z,92.25
2022-08-07T05:14:52.442Z,91.68
2022-08-07T05:14:55.290Z,91.88
2022-08-07T05:15:36.124Z,91.88
2022-08-07T05:16:36.086Z,92.07
2022-08-07T05:17:52.096Z,92.16
2022-08-07T05:18:36.012Z,92.16
2022-08-07T05:19:45.217Z,92.25
2022-08-07T05:20:35.958Z,92.74
2022-08-07T05:21:59.118Z,92.35
2022-08-07T05:22:35.883Z,92.83
2022-08-07T05:23:35.858Z,92.74
2022-08-07T05:24:39.342Z,92.45
2022-08-07T05:26:13.701Z,92.45
2022-08-07T05:26:35.746Z,92.74
2022-08-07T05:28:16.189Z,92.74
2022-08-07T05:28:35.677Z,92.74
2022-08-07T05:29:48.066Z,92.64
2022-08-07T05:30:35.615Z,92.64
2022-08-07T05:31:37.940Z,92.83
2022-08-07T05:32:35.546Z,92.74
2022-08-07T05:33:36.926Z,92.64
2022-08-07T05:34:35.478Z,92.45
2022-08-07T05:35:41.763Z,93.02
2022-08-07T05:36:36.028Z,92.83
2022-08-07T05:37:37.768Z,93.12
2022-08-07T05:39:00.225Z,92.83
2022-08-07T05:40:17.103Z,93.12
2022-08-07T05:40:35.342Z,92.88
2022-08-07T05:42:01.193Z,92.83
2022-08-07T05:42:36.993Z,93.79
2022-08-07T05:43:50.153Z,92.97
2022-08-07T05:44:35.141Z,93.35
2022-08-07T05:45:47.690Z,92.97
2022-08-07T05:46:35.071Z,92.78
2022-08-07T05:47:38.513Z,92.59
2022-08-07T05:48:35.006Z,92.97
2022-08-07T05:49:40.436Z,92.88
2022-08-07T05:50:34.938Z,93.35
2022-08-07T05:51:40.015Z,93.84
2022-08-07T05:52:34.871Z,93.16
2022-08-07T05:54:12.422Z,92.88
2022-08-07T05:54:53.521Z,92.78
2022-08-07T05:56:03.681Z,93.45
2022-08-07T05:56:34.740Z,93.84
2022-08-07T05:57:38.117Z,94.02
2022-08-07T05:58:36.837Z,93.45
2022-08-07T05:59:38.913Z,93.64
2022-08-07T06:00:34.605Z,93.45
2022-08-07T06:01:34.745Z,92.88
2022-08-07T06:02:34.537Z,93.45
2022-08-07T06:03:53.257Z,93.84
2022-08-07T06:04:34.466Z,93.16
2022-08-07T06:05:34.448Z,93.69
2022-08-07T06:06:34.400Z,92.92
2022-08-07T06:08:13.361Z,93.50
2022-08-07T06:08:37.823Z,93.50
2022-08-07T06:10:04.745Z,93.50
2022-08-07T06:10:34.274Z,92.83
2022-08-07T06:11:34.236Z,92.92
2022-08-07T06:12:34.201Z,92.92
2022-08-07T06:14:10.595Z,93.30
2022-08-07T06:14:34.153Z,92.92
2022-08-07T06:15:39.353Z,93.02
2022-08-07T06:16:34.068Z,92.44
2022-08-07T06:17:37.906Z,93.02
2022-08-07T06:18:34.003Z,93.02
2022-08-07T06:19:52.233Z,92.92
2022-08-07T06:20:50.011Z,92.92
2022-08-07T06:22:15.241Z,92.87
2022-08-07T06:22:38.836Z,92.97
2022-08-07T06:24:37.130Z,93.54
2022-08-07T06:24:45.946Z,93.93
2022-08-07T06:25:34.832Z,94.12
2022-08-07T06:26:33.739Z,93.64
2022-08-07T06:27:59.785Z,92.49
2022-08-07T06:28:33.671Z,92.97
2022-08-07T06:29:33.640Z,93.07
2022-08-07T06:30:37.410Z,92.87
2022-08-07T06:31:38.361Z,92.78
2022-08-07T06:32:33.540Z,92.87
2022-08-07T06:33:33.508Z,92.78
2022-08-07T06:34:33.476Z,92.78
2022-08-07T06:35:45.600Z,92.78
2022-08-07T06:36:35.378Z,92.97
2022-08-07T06:37:43.661Z,92.68
2022-08-07T06:38:33.343Z,92.44
2022-08-07T06:40:16.426Z,92.35
2022-08-07T06:40:35.189Z,92.15
2022-08-07T06:42:01.805Z,92.06
2022-08-07T06:42:35.352Z,92.25
2022-08-07T06:43:39.556Z,91.96
2022-08-07T06:44:34.277Z,92.15
2022-08-07T06:45:33.115Z,91.86
2022-08-07T06:46:35.204Z,92.06
2022-08-07T06:47:48.190Z,92.44
2022-08-07T06:48:33.016Z,92.44
2022-08-07T06:49:32.985Z,91.96
2022-08-07T06:50:32.949Z,92.25
2022-08-07T06:51:33.714Z,91.43
2022-08-07T06:52:36.071Z,91.43
2022-08-07T06:55:30.154Z,92.10
2022-08-07T06:55:33.207Z,91.96
2022-08-07T06:55:47.977Z,92.10
2022-08-07T06:56:32.754Z,92.10
2022-08-07T06:57:43.633Z,91.43
2022-08-07T06:58:32.694Z,91.34
2022-08-07T07:00:14.539Z,91.43
2022-08-07T07:00:32.624Z,91.24
2022-08-07T07:01:41.798Z,91.63
2022-08-07T07:02:48.745Z,91.14
2022-08-07T07:03:48.787Z,91.14
2022-08-07T07:04:34.079Z,90.76
2022-08-07T07:06:04.074Z,91.14
2022-08-07T07:06:32.434Z,91.05
2022-08-07T07:07:58.606Z,90.90
2022-08-07T07:08:33.617Z,91.00
2022-08-07T07:09:32.336Z,90.61
2022-08-07T07:10:32.303Z,90.42
2022-08-07T07:12:07.484Z,90.81
2022-08-07T07:12:33.600Z,90.42
2022-08-07T07:13:56.131Z,90.61
2022-08-07T07:14:32.174Z,90.42
2022-08-07T07:15:35.748Z,89.85
2022-08-07T07:16:32.107Z,89.56
2022-08-07T07:17:39.202Z,89.85
2022-08-07T07:18:47.043Z,89.85
2022-08-07T07:19:55.776Z,89.61
2022-08-07T07:20:31.984Z,89.22
2022-08-07T07:22:04.153Z,89.12
2022-08-07T07:22:39.979Z,89.22
2022-08-07T07:24:08.527Z,87.88
2022-08-07T07:24:32.002Z,87.68
2022-08-07T07:26:35.320Z,88.07
2022-08-07T07:26:36.889Z,87.30
2022-08-07T07:27:35.547Z,87.21
2022-08-07T07:28:48.632Z,87.40
2022-08-07T07:29:56.170Z,87.78
2022-08-07T07:30:38.046Z,87.25
2022-08-07T07:31:39.773Z,87.44
2022-08-07T07:32:31.599Z,86.10
2022-08-07T07:33:31.571Z,85.42
2022-08-07T07:34:31.870Z,84.75
2022-08-07T07:35:33.495Z,85.24
2022-08-07T07:36:32.393Z,85.42
2022-08-07T07:37:45.148Z,85.91
2022-08-07T07:38:31.441Z,85.71
2022-08-07T07:39:35.809Z,85.52
2022-08-07T07:40:31.351Z,85.33
2022-08-07T07:42:02.015Z,85.04
2022-08-07T07:42:33.271Z,84.95
2022-08-07T07:43:47.769Z,85.33
2022-08-07T07:44:31.223Z,84.31
2022-08-07T07:46:37.611Z,83.74
2022-08-07T07:46:37.766Z,83.84
2022-08-07T07:47:52.003Z,82.87
2022-08-07T07:48:35.872Z,83.26
2022-08-07T07:50:35.902Z,82.68
2022-08-07T07:50:39.162Z,82.40
2022-08-07T07:51:31.002Z,82.40
2022-08-07T07:52:31.300Z,82.78
2022-08-07T07:53:30.940Z,82.40
2022-08-07T07:54:30.906Z,81.82
2022-08-07T07:55:37.741Z,82.40
2022-08-07T07:56:31.075Z,82.24
2022-08-07T07:57:51.882Z,81.96
2022-08-07T07:58:30.785Z,82.15
2022-08-07T07:59:52.799Z,81.48
2022-08-07T08:00:31.582Z,81.67
2022-08-07T08:02:04.723Z,81.28
2022-08-07T08:02:34.012Z,80.61
2022-08-07T08:04:06.507Z,80.42
2022-08-07T08:04:30.657Z,79.94
2022-08-07T08:05:50.846Z,80.32
2022-08-07T08:06:30.537Z,79.84
2022-08-07T08:07:35.354Z,79.36
2022-08-07T08:08:34.508Z,79.79
2022-08-07T08:09:30.441Z,81.23
2022-08-07T08:10:38.262Z,81.13
2022-08-07T08:11:59.384Z,80.36
2022-08-07T08:12:51.555Z,80.36
2022-08-07T08:13:36.718Z,80.17
2022-08-07T08:14:30.284Z,79.79
2022-08-07T08:15:57.712Z,79.50
2022-08-07T08:16:30.940Z,79.11
2022-08-07T08:17:57.822Z,79.11
2022-08-07T08:18:30.168Z,78.44
2022-08-07T08:20:16.381Z,78.25
2022-08-07T08:20:32.252Z,78.67
2022-08-07T08:21:56.014Z,78.67
2022-08-07T08:22:32.779Z,77.71
2022-08-07T08:23:30.011Z,77.51
2022-08-07T08:24:36.620Z,77.23
2022-08-07T08:25:42.799Z,77.23
2022-08-07T08:26:29.921Z,76.65
2022-08-07T08:27:33.616Z,76.65
2022-08-07T08:28:38.149Z,76.84
2022-08-07T08:29:31.384Z,76.26
2022-08-07T08:30:29.799Z,75.69
2022-08-07T08:31:30.237Z,74.44
2022-08-07T08:32:38.135Z,73.90
2022-08-07T08:33:33.178Z,74.19
2022-08-07T08:34:29.676Z,73.22
2022-08-07T08:35:39.378Z,73.71
2022-08-07T08:36:30.415Z,74.38
2022-08-07T08:38:01.039Z,74.19
2022-08-07T08:38:32.482Z,73.80
2022-08-07T08:39:38.996Z,73.71
2022-08-07T08:40:29.535Z,73.13
2022-08-07T08:41:53.597Z,72.94
2022-08-07T08:42:29.433Z,72.59
2022-08-07T08:43:42.195Z,73.46
2022-08-07T08:44:31.399Z,73.55
2022-08-07T08:45:58.306Z,73.26
2022-08-07T08:46:29.313Z,73.16
2022-08-07T08:47:29.553Z,73.36
2022-08-07T08:48:32.509Z,73.74
2022-08-07T08:49:33.580Z,73.36
2022-08-07T08:50:39.289Z,73.26
2022-08-07T08:51:49.694Z,73.01
2022-08-07T08:52:30.476Z,73.49
2022-08-07T08:53:29.491Z,71.34
2022-08-07T08:54:29.077Z,71.18
2022-08-07T08:55:55.398Z,70.89
2022-08-07T08:56:29.014Z,70.50
2022-08-07T08:57:30.385Z,70.12
2022-08-07T08:58:29.638Z,70.79
2022-08-07T08:59:28.927Z,70.60
2022-08-07T09:00:28.897Z,70.21
2022-08-07T09:01:29.913Z,70.79
2022-08-07T09:02:35.094Z,70.21
2022-08-07T09:03:47.525Z,69.73
2022-08-07T09:04:28.959Z,70.50
2022-08-07T09:05:36.875Z,71.18
2022-08-07T09:06:28.723Z,70.92
2022-08-07T09:07:28.963Z,70.92
2022-08-07T09:08:28.974Z,71.31
2022-08-07T09:09:30.178Z,71.12
2022-08-07T09:10:28.611Z,70.25
2022-08-07T09:11:43.385Z,69.38
2022-08-07T09:12:31.765Z,70.15
2022-08-07T09:13:37.588Z,70.35
2022-08-07T09:14:29.668Z,70.92
2022-08-07T09:16:25.159Z,70.48
2022-08-07T09:16:30.538Z,70.96
2022-08-07T09:17:33.926Z,69.51
2022-08-07T09:18:28.368Z,68.45
2022-08-07T09:19:53.744Z,68.45
2022-08-07T09:20:35.720Z,68.35
2022-08-07T09:21:34.395Z,68.26
2022-08-07T09:24:30.560Z,67.10
2022-08-07T09:24:32.199Z,67.00
2022-08-07T09:24:55.445Z,67.97
2022-08-07T09:25:28.167Z,67.40
2022-08-07T09:26:28.130Z,67.88
2022-08-07T09:27:28.906Z,67.58
2022-08-07T09:30:04.214Z,67.78
2022-08-07T09:30:06.307Z,67.30
2022-08-07T09:30:28.414Z,66.85
2022-08-07T09:31:28.005Z,67.04
2022-08-07T09:32:27.956Z,66.85
2022-08-07T09:33:52.441Z,67.43
2022-08-07T09:34:27.900Z,67.23
2022-08-07T09:36:02.988Z,66.46
2022-08-07T09:36:30.197Z,66.94
2022-08-07T09:37:47.787Z,67.23
2022-08-07T09:38:27.788Z,67.14
2022-08-07T09:39:54.506Z,67.33
2022-08-07T09:40:27.765Z,66.75
2022-08-07T09:41:27.867Z,65.82
2022-08-07T09:42:32.951Z,65.98
2022-08-07T09:44:03.211Z,65.82
2022-08-07T09:44:30.024Z,65.82
2022-08-07T09:47:25.584Z,65.82
2022-08-07T09:47:50.784Z,64.76
2022-08-07T09:48:00.863Z,65.05
2022-08-07T09:48:29.779Z,64.76
2022-08-07T09:50:02.567Z,64.37
2022-08-07T09:50:30.042Z,64.56
2022-08-07T09:52:16.758Z,64.37
2022-08-07T09:52:34.464Z,63.02
2022-08-07T09:53:27.354Z,63.21
2022-08-07T09:54:28.328Z,63.40
2022-08-07T09:55:29.287Z,63.15
2022-08-07T09:56:37.206Z,63.82
2022-08-07T09:57:28.281Z,62.63
2022-08-07T09:58:32.322Z,63.05
2022-08-07T09:59:37.144Z,63.82
2022-08-07T10:00:29.900Z,62.95
2022-08-07T10:01:51.152Z,62.86
2022-08-07T10:02:29.581Z,62.08
2022-08-07T10:04:05.808Z,61.80
2022-08-07T10:04:28.361Z,61.80
2022-08-07T10:05:59.050Z,61.51
2022-08-07T10:06:27.412Z,62.28
2022-08-07T10:07:39.887Z,62.66
2022-08-07T10:08:26.928Z,61.99
2022-08-07T10:09:42.647Z,61.34
2022-08-07T10:10:28.307Z,61.34
2022-08-07T10:12:00.573Z,61.73
2022-08-07T10:12:28.472Z,61.25
2022-08-07T10:13:55.420Z,61.25
2022-08-07T10:14:31.103Z,60.57
2022-08-07T10:15:26.725Z,60.76
2022-08-07T10:16:26.703Z,59.05
2022-08-07T10:17:28.972Z,58.67
2022-08-07T10:18:27.122Z,59.05
2022-08-07T10:19:26.615Z,59.15
2022-08-07T10:20:30.500Z,59.15
2022-08-07T10:22:14.942Z,59.53
2022-08-07T10:22:34.053Z,60.50
2022-08-07T10:24:05.007Z,59.25
2022-08-07T10:24:26.475Z,58.37
2022-08-07T10:25:42.333Z,58.76
2022-08-07T10:26:26.421Z,58.70
2022-08-07T10:27:26.571Z,58.31
2022-08-07T10:28:26.364Z,58.12
2022-08-07T10:29:26.338Z,57.92
2022-08-07T10:30:26.493Z,58.50
2022-08-07T10:31:26.279Z,57.63
2022-08-07T10:32:37.029Z,57.82
2022-08-07T10:34:06.504Z,57.63
2022-08-07T10:34:27.343Z,58.14
2022-08-07T10:35:26.171Z,58.82
2022-08-07T10:36:29.753Z,58.24
2022-08-07T10:37:48.264Z,57.66
2022-08-07T10:38:36.302Z,56.98
2022-08-07T10:39:41.417Z,56.40
2022-08-07T10:40:30.111Z,55.17
2022-08-07T10:41:52.413Z,54.88
2022-08-07T10:42:30.916Z,54.98
2022-08-07T10:43:34.804Z,55.46
2022-08-07T10:44:28.769Z,55.17
2022-08-07T10:45:44.610Z,54.49
2022-08-07T10:46:25.869Z,54.69
2022-08-07T10:47:27.035Z,55.00
2022-08-07T10:48:25.814Z,54.81
2022-08-07T10:49:49.485Z,54.62
2022-08-07T10:50:26.510Z,53.85
2022-08-07T10:51:39.530Z,53.36
2022-08-07T10:52:31.933Z,53.36
2022-08-07T10:53:25.682Z,52.78
2022-08-07T10:54:25.662Z,53.19
2022-08-07T10:55:38.226Z,51.93
2022-08-07T10:56:31.460Z,52.42
2022-08-07T10:57:34.730Z,52.64
2022-08-07T10:58:33.404Z,52.73
2022-08-07T10:59:25.524Z,53.12
2022-08-07T11:00:36.771Z,53.05
2022-08-07T11:01:25.553Z,53.05
2022-08-07T11:02:32.729Z,52.98
2022-08-07T11:03:28.031Z,52.59
2022-08-07T11:04:32.271Z,51.72
2022-08-07T11:05:25.375Z,52.13
2022-08-07T11:06:26.846Z,51.55
2022-08-07T11:07:58.526Z,51.26
2022-08-07T11:08:30.357Z,50.77
2022-08-07T11:10:09.746Z,50.99
2022-08-07T11:10:27.428Z,50.02
2022-08-07T11:11:25.223Z,50.60
2022-08-07T11:12:31.853Z,51.31
2022-08-07T11:14:43.941Z,50.14
2022-08-07T11:14:45.851Z,50.26
2022-08-07T11:15:31.578Z,49.41
2022-08-07T11:16:29.796Z,48.83
2022-08-07T11:17:45.298Z,49.41
2022-08-07T11:18:25.055Z,48.56
2022-08-07T11:19:27.251Z,47.59
2022-08-07T11:20:25.011Z,47.59
2022-08-07T11:21:24.988Z,47.22
2022-08-07T11:22:33.333Z,48.10
2022-08-07T11:23:30.848Z,48.61
2022-08-07T11:24:24.916Z,47.83
2022-08-07T11:25:24.892Z,47.25
2022-08-07T11:26:24.868Z,46.47
2022-08-07T11:27:33.520Z,46.86
2022-08-07T11:28:25.029Z,47.07
2022-08-07T11:29:42.727Z,45.78
2022-08-07T11:30:41.552Z,46.30
2022-08-07T11:31:24.756Z,45.71
2022-08-07T11:32:25.256Z,45.32
2022-08-07T11:33:54.207Z,45.34
2022-08-07T11:34:24.683Z,45.34
2022-08-07T11:35:25.322Z,44.97
2022-08-07T11:36:25.407Z,44.05
2022-08-07T11:37:24.619Z,44.73
2022-08-07T11:38:28.098Z,44.76
2022-08-07T11:39:24.592Z,45.36
2022-08-07T11:40:24.578Z,45.17
2022-08-07T11:41:29.661Z,45.09
2022-08-07T11:42:29.672Z,44.90
2022-08-07T11:43:41.347Z,44.24
2022-08-07T11:44:24.460Z,44.04
2022-08-07T11:45:35.683Z,44.06
2022-08-07T11:46:24.412Z,43.77
2022-08-07T11:47:38.590Z,42.58
2022-08-07T11:48:29.877Z,43.04
2022-08-07T11:49:50.390Z,43.26
2022-08-07T11:50:31.824Z,43.65
2022-08-07T11:51:40.816Z,43.65
2022-08-07T11:52:28.940Z,43.26
2022-08-07T11:53:24.251Z,42.58
2022-08-07T11:54:25.369Z,42.34
2022-08-07T11:56:26.169Z,43.39
2022-08-07T11:56:26.965Z,43.95
2022-08-07T11:57:59.757Z,43.93
2022-08-07T11:58:33.171Z,44.49
2022-08-07T12:00:11.106Z,44.76
2022-08-07T12:00:28.404Z,45.28
2022-08-07T12:01:24.065Z,45.39
2022-08-07T12:02:30.230Z,44.64
2022-08-07T12:03:45.767Z,44.87
2022-08-07T12:04:23.994Z,44.51
2022-08-07T12:05:41.396Z,43.82
2022-08-07T12:06:37.531Z,43.53
2022-08-07T12:07:27.426Z,44.14
2022-08-07T12:08:25.675Z,43.16
2022-08-07T12:09:23.950Z,43.51
2022-08-07T12:10:23.854Z,43.33
2022-08-07T12:11:23.831Z,43.75
2022-08-07T12:12:23.806Z,42.58
2022-08-07T12:13:35.577Z,42.50
2022-08-07T12:14:23.762Z,42.13
2022-08-07T12:15:46.652Z,42.64
2022-08-07T12:16:30.139Z,41.17
2022-08-07T12:17:23.688Z,41.19
2022-08-07T12:18:29.849Z,40.41
2022-08-07T12:19:23.646Z,41.09
2022-08-07T12:20:30.023Z,41.02
2022-08-07T12:21:55.648Z,40.53
2022-08-07T12:22:37.310Z,39.76
2022-08-07T12:23:37.434Z,38.96
2022-08-07T12:24:37.921Z,39.80
2022-08-07T12:26:03.310Z,39.90
2022-08-07T12:26:30.887Z,39.69
2022-08-07T12:27:28.034Z,40.48
2022-08-07T12:28:31.024Z,40.60
2022-08-07T12:29:37.674Z,39.54
2022-08-07T12:30:23.623Z,39.96
2022-08-07T12:31:23.608Z,39.15
2022-08-07T12:32:23.352Z,38.08
2022-08-07T12:33:30.776Z,38.81
2022-08-07T12:34:23.308Z,39.36
2022-08-07T12:35:24.030Z,40.25
2022-08-07T12:36:32.964Z,41.61
2022-08-07T12:37:28.316Z,42.07
2022-08-07T12:38:36.980Z,40.80
2022-08-07T12:39:42.291Z,40.63
2022-08-07T12:40:46.729Z,40.41
2022-08-07T12:41:23.209Z,40.99
2022-08-07T12:42:27.519Z,40.92
2022-08-07T12:44:01.593Z,40.37
2022-08-07T12:44:23.081Z,39.39
2022-08-07T12:45:23.073Z,39.88
2022-08-07T12:46:26.636Z,40.11
2022-08-07T12:47:31.757Z,40.80
2022-08-07T12:48:28.451Z,39.76
2022-08-07T12:49:39.813Z,38.78
2022-08-07T12:50:38.551Z,37.61
2022-08-07T12:51:22.928Z,37.61
2022-08-07T12:52:22.905Z,37.29